Terminal Aerodrome Forecast
Issued by NWS Jackson, KY

Home | Current Version | Previous Version | Text Only | Print | Product List | Glossary On
Versions: 1 2 3 4 5 6 7 8 9 10 11 12 13 14 15 16 17 18 19 20 21 22
333
FTUS43 KJKL 182339
TAFJKL
TAF
KJKL 182339Z 1900/1924 22004KT P6SM VCSH SCT025 OVC050
     FM190100 22004KT P6SM VCSH OVC025
     FM190300 23004KT 4SM BR VCSH OVC015
     FM190800 VRB03KT 4SM BR VCSH OVC008
     FM191600 VRB03KT P6SM BKN010
     FM191900 VRB03KT P6SM SCT015=

USA.gov is the U.S. government's official web portal to all federal, state and local government web resources and services.